createdAt,value
2022-07-30T00:02:08.502Z,85.86
2022-07-30T00:04:35.932Z,85.87
2022-07-30T00:07:04.632Z,86.11
2022-07-30T00:09:34.494Z,86.31
2022-07-30T00:12:05.443Z,86.43
2022-07-30T00:14:32.899Z,86.80
2022-07-30T00:17:00.115Z,87.40
2022-07-30T00:19:28.208Z,87.24
2022-07-30T00:21:56.089Z,87.18
2022-07-30T00:24:23.737Z,87.50
2022-07-30T00:26:51.179Z,87.02
2022-07-30T00:29:18.506Z,87.09
2022-07-30T00:31:45.628Z,87.98
2022-07-30T00:34:13.256Z,88.34
2022-07-30T00:36:40.976Z,88.98
2022-07-30T00:39:08.530Z,89.02
2022-07-30T00:41:38.042Z,88.94
2022-07-30T00:44:05.470Z,88.13
2022-07-30T00:46:32.670Z,88.77
2022-07-30T00:49:00.122Z,88.68
2022-07-30T00:51:27.392Z,88.84
2022-07-30T00:53:54.945Z,88.42
2022-07-30T00:56:22.642Z,88.38
2022-07-30T00:58:49.942Z,88.68
2022-07-30T01:01:17.281Z,88.20
2022-07-30T01:03:45.035Z,88.79
2022-07-30T01:06:14.202Z,89.50
2022-07-30T01:09:03.640Z,89.65
2022-07-30T01:11:39.845Z,89.75
2022-07-30T01:14:08.667Z,89.35
2022-07-30T01:16:38.155Z,90.01
2022-07-30T01:19:31.184Z,90.25
2022-07-30T01:22:11.189Z,91.07
2022-07-30T01:24:47.148Z,91.09
2022-07-30T01:27:19.690Z,90.85
2022-07-30T01:29:49.406Z,90.62
2022-07-30T01:32:19.740Z,90.32
2022-07-30T01:34:47.749Z,90.80
2022-07-30T01:37:17.615Z,90.97
2022-07-30T01:39:49.888Z,90.64
2022-07-30T01:42:19.409Z,89.02
2022-07-30T01:44:50.327Z,88.85
2022-07-30T01:47:20.270Z,89.04
2022-07-30T01:49:49.905Z,89.35
2022-07-30T01:52:18.712Z,89.80
2022-07-30T01:54:48.729Z,89.83
2022-07-30T01:57:19.390Z,89.76
2022-07-30T01:59:50.876Z,90.16
2022-07-30T02:02:19.673Z,89.88
2022-07-30T02:04:47.930Z,90.33
2022-07-30T02:07:15.165Z,90.48
2022-07-30T02:09:52.048Z,90.37
2022-07-30T02:12:30.280Z,90.90
2022-07-30T02:15:35.127Z,92.19
2022-07-30T02:18:06.929Z,91.92
2022-07-30T02:20:35.982Z,92.91
2022-07-30T02:23:10.598Z,92.07
2022-07-30T02:25:42.357Z,92.83
2022-07-30T02:28:13.184Z,92.51
2022-07-30T02:30:47.669Z,93.26
2022-07-30T02:33:17.415Z,92.79
2022-07-30T02:35:45.591Z,92.84
2022-07-30T02:38:16.482Z,92.34
2022-07-30T02:40:45.250Z,92.63
2022-07-30T02:43:16.927Z,93.15
2022-07-30T02:45:48.495Z,92.87
2022-07-30T02:48:34.545Z,92.35
2022-07-30T02:51:04.256Z,93.07
2022-07-30T02:53:33.310Z,92.82
2022-07-30T02:56:02.712Z,92.43
2022-07-30T02:58:31.059Z,92.53
2022-07-30T03:01:00.349Z,92.17
2022-07-30T03:03:32.068Z,92.44
2022-07-30T03:06:00.819Z,92.35
2022-07-30T03:08:29.219Z,92.31
2022-07-30T03:10:57.658Z,92.71
2022-07-30T03:13:25.759Z,92.68
2022-07-30T03:15:54.144Z,92.82
2022-07-30T03:18:23.591Z,92.89
2022-07-30T03:20:55.310Z,93.49
2022-07-30T03:23:23.903Z,93.60
2022-07-30T03:25:58.214Z,93.53
2022-07-30T03:28:26.763Z,94.40
2022-07-30T03:30:54.772Z,93.98
2022-07-30T03:33:23.665Z,94.32
2022-07-30T03:36:08.629Z,94.73
2022-07-30T03:38:38.937Z,94.35
2022-07-30T03:41:08.033Z,94.14
2022-07-30T03:43:35.962Z,94.33
2022-07-30T03:46:05.938Z,94.31
2022-07-30T03:48:36.282Z,94.12
2022-07-30T03:51:05.194Z,93.33
2022-07-30T03:53:32.927Z,93.57
2022-07-30T03:56:19.504Z,93.32
2022-07-30T03:59:06.913Z,92.23
2022-07-30T04:01:37.402Z,91.05
2022-07-30T04:04:21.462Z,91.08
2022-07-30T04:06:49.950Z,91.74
2022-07-30T04:09:19.495Z,91.84
2022-07-30T04:11:48.275Z,91.20
2022-07-30T04:14:17.814Z,91.34
2022-07-30T04:17:04.070Z,91.10
2022-07-30T04:19:48.346Z,91.12
2022-07-30T04:22:21.415Z,90.84
2022-07-30T04:24:49.791Z,89.84
2022-07-30T04:27:18.204Z,89.11
2022-07-30T04:29:45.563Z,89.31
2022-07-30T04:32:13.347Z,88.81
2022-07-30T04:34:59.795Z,88.32
2022-07-30T04:37:53.066Z,88.01
2022-07-30T04:40:20.906Z,88.03
2022-07-30T04:42:48.268Z,87.75
2022-07-30T04:45:15.741Z,87.13
2022-07-30T04:47:55.343Z,86.85
2022-07-30T04:50:42.378Z,86.49
2022-07-30T04:53:12.661Z,86.02
2022-07-30T04:55:48.927Z,86.10
2022-07-30T04:58:20.614Z,85.92
2022-07-30T05:00:52.220Z,86.08
2022-07-30T05:03:26.098Z,85.45
2022-07-30T05:05:57.632Z,85.68
2022-07-30T05:08:28.276Z,85.68
2022-07-30T05:10:58.624Z,85.35
2022-07-30T05:13:34.581Z,85.55
2022-07-30T05:16:07.518Z,85.72
2022-07-30T05:18:36.695Z,85.97
2022-07-30T05:21:04.882Z,86.41
2022-07-30T05:23:37.700Z,86.84
2022-07-30T05:26:13.851Z,87.60
2022-07-30T05:28:48.474Z,87.94
2022-07-30T05:31:24.605Z,88.12
2022-07-30T05:34:02.939Z,88.73
2022-07-30T05:36:38.410Z,88.92
2022-07-30T05:39:06.065Z,89.22
2022-07-30T05:41:55.121Z,88.12
2022-07-30T05:44:26.950Z,88.61
2022-07-30T05:46:55.085Z,86.09
2022-07-30T05:49:24.046Z,87.09
2022-07-30T05:51:53.055Z,86.99
2022-07-30T05:54:20.522Z,87.27
2022-07-30T05:57:10.886Z,86.17
2022-07-30T05:59:39.262Z,85.22
2022-07-30T06:02:10.730Z,84.87
2022-07-30T06:04:56.404Z,83.50
2022-07-30T06:07:24.693Z,82.80
2022-07-30T06:09:54.135Z,81.97
2022-07-30T06:12:21.519Z,81.55
2022-07-30T06:14:49.306Z,80.85
2022-07-30T06:17:23.703Z,80.16
2022-07-30T06:20:12.970Z,80.72
2022-07-30T06:23:03.191Z,80.85
2022-07-30T06:25:42.779Z,80.56
2022-07-30T06:28:27.738Z,79.31
2022-07-30T06:30:58.080Z,79.61
2022-07-30T06:33:28.264Z,78.23
2022-07-30T06:35:55.674Z,77.52
2022-07-30T06:38:26.846Z,76.98
2022-07-30T06:41:04.418Z,76.68
2022-07-30T06:43:47.716Z,76.67
2022-07-30T06:46:33.524Z,75.54
2022-07-30T06:49:00.965Z,75.10
2022-07-30T06:51:28.253Z,73.64
2022-07-30T06:53:55.817Z,71.72
2022-07-30T06:56:41.612Z,71.30
2022-07-30T06:59:08.933Z,70.56
2022-07-30T07:01:54.685Z,70.05
2022-07-30T07:04:23.671Z,70.00
2022-07-30T07:06:50.921Z,69.94
2022-07-30T07:09:27.899Z,68.90
2022-07-30T07:12:24.483Z,68.66
2022-07-30T07:14:51.712Z,67.28
2022-07-30T07:17:20.160Z,66.30
2022-07-30T07:20:06.015Z,66.64
2022-07-30T07:22:40.702Z,66.30
2022-07-30T07:25:09.708Z,65.35
2022-07-30T07:27:38.448Z,64.41
2022-07-30T07:30:07.274Z,64.02
2022-07-30T07:32:37.455Z,63.69
2022-07-30T07:35:06.618Z,61.96
2022-07-30T07:37:36.359Z,62.28
2022-07-30T07:40:06.135Z,62.28
2022-07-30T07:42:38.026Z,61.63
2022-07-30T07:45:07.293Z,61.52
2022-07-30T07:47:49.223Z,61.80
2022-07-30T07:50:36.114Z,59.60
2022-07-30T07:53:04.146Z,60.63
2022-07-30T07:55:32.272Z,58.85
2022-07-30T07:58:01.014Z,58.60
2022-07-30T08:00:29.587Z,59.23
2022-07-30T08:02:58.676Z,59.96
2022-07-30T08:06:01.765Z,58.46
2022-07-30T08:08:25.063Z,57.99
2022-07-30T08:11:12.669Z,56.99
2022-07-30T08:14:15.643Z,57.98
2022-07-30T08:17:01.616Z,57.64
2022-07-30T08:19:47.619Z,57.50
2022-07-30T08:22:21.537Z,56.10
2022-07-30T08:24:48.749Z,56.46
2022-07-30T08:27:16.039Z,55.31
2022-07-30T08:29:43.449Z,54.69
2022-07-30T08:32:10.600Z,54.80
2022-07-30T08:34:40.515Z,55.46
2022-07-30T08:37:07.849Z,54.77
2022-07-30T08:39:36.391Z,54.72
2022-07-30T08:42:05.072Z,53.71
2022-07-30T08:44:35.653Z,53.78
2022-07-30T08:47:07.257Z,53.10
2022-07-30T08:50:07.003Z,51.05
2022-07-30T08:52:37.914Z,49.20
2022-07-30T08:55:11.820Z,49.33
2022-07-30T08:57:40.851Z,49.13
2022-07-30T09:00:09.365Z,48.46
2022-07-30T09:02:36.646Z,48.54
2022-07-30T09:05:07.015Z,48.52
2022-07-30T09:07:36.168Z,47.97
2022-07-30T09:10:07.318Z,47.40
2022-07-30T09:12:43.068Z,47.25
2022-07-30T09:15:15.515Z,47.12
2022-07-30T09:17:56.645Z,47.70
2022-07-30T09:20:31.468Z,47.08
2022-07-30T09:23:02.253Z,46.58
2022-07-30T09:25:50.258Z,46.00
2022-07-30T09:28:36.351Z,45.78
2022-07-30T09:31:16.917Z,46.14
2022-07-30T09:34:02.743Z,45.55
2022-07-30T09:36:48.927Z,44.76
2022-07-30T09:39:35.877Z,43.21
2022-07-30T09:42:27.909Z,43.21
2022-07-30T09:45:09.834Z,43.58
2022-07-30T09:47:42.829Z,44.50
2022-07-30T09:50:17.919Z,44.13
2022-07-30T09:53:09.626Z,44.60
2022-07-30T09:55:42.306Z,41.65
2022-07-30T09:58:26.384Z,41.08
2022-07-30T10:00:59.668Z,41.44
2022-07-30T10:03:44.266Z,43.14
2022-07-30T10:06:38.169Z,41.57
2022-07-30T10:09:37.433Z,40.82
2022-07-30T10:12:11.274Z,38.73
2022-07-30T10:14:47.292Z,39.63
2022-07-30T10:17:18.335Z,39.80
2022-07-30T10:20:14.929Z,40.69
2022-07-30T10:23:07.780Z,40.88
2022-07-30T10:25:49.283Z,40.52
2022-07-30T10:28:41.021Z,39.90
2022-07-30T10:31:47.952Z,40.50
2022-07-30T10:33:57.186Z,38.72
2022-07-30T10:36:26.767Z,38.74
2022-07-30T10:38:55.766Z,40.12
2022-07-30T10:41:44.264Z,39.95
2022-07-30T10:44:31.318Z,38.80
2022-07-30T10:47:09.207Z,39.16
2022-07-30T10:49:41.037Z,38.74
2022-07-30T10:52:12.172Z,39.24
2022-07-30T10:54:42.575Z,39.79
2022-07-30T10:57:26.608Z,38.94
2022-07-30T11:00:00.695Z,38.79
2022-07-30T11:02:35.503Z,38.40
2022-07-30T11:05:38.219Z,38.44
2022-07-30T11:08:32.614Z,37.76
2022-07-30T11:12:01.541Z,37.48
2022-07-30T11:14:20.538Z,38.44
2022-07-30T11:16:51.439Z,37.87
2022-07-30T11:19:56.987Z,38.38
2022-07-30T11:22:28.807Z,37.57
2022-07-30T11:24:57.987Z,37.66
2022-07-30T11:27:45.777Z,36.52
2022-07-30T11:30:17.008Z,37.85
2022-07-30T11:32:48.570Z,38.20
2022-07-30T11:35:19.201Z,38.18
2022-07-30T11:38:03.370Z,38.17
2022-07-30T11:40:40.424Z,38.46
2022-07-30T11:43:36.975Z,38.09
2022-07-30T11:46:36.401Z,37.32
2022-07-30T11:49:09.095Z,37.11
2022-07-30T11:51:44.477Z,37.21
2022-07-30T11:54:12.931Z,37.17
2022-07-30T11:56:53.503Z,36.26
2022-07-30T11:59:21.295Z,37.20
2022-07-30T12:02:01.987Z,36.68
2022-07-30T12:04:30.114Z,37.04
2022-07-30T12:06:57.986Z,36.68
2022-07-30T12:09:32.230Z,36.77
2022-07-30T12:12:02.388Z,34.97
2022-07-30T12:14:39.491Z,36.08
2022-07-30T12:17:14.993Z,36.02
2022-07-30T12:19:49.642Z,35.47
2022-07-30T12:22:16.939Z,36.56
2022-07-30T12:24:44.329Z,35.88
2022-07-30T12:27:11.679Z,35.98
2022-07-30T12:29:39.158Z,35.02
2022-07-30T12:32:06.904Z,34.35
2022-07-30T12:34:34.532Z,34.86
2022-07-30T12:37:10.487Z,35.84
2022-07-30T12:39:38.544Z,35.34
2022-07-30T12:42:17.587Z,36.09
2022-07-30T12:44:45.146Z,36.11
2022-07-30T12:47:20.527Z,35.06
2022-07-30T12:49:50.281Z,34.49
2022-07-30T12:52:33.770Z,35.01
2022-07-30T12:55:06.713Z,35.34
2022-07-30T12:57:56.721Z,34.34
2022-07-30T13:00:27.031Z,34.89
2022-07-30T13:02:55.022Z,35.34
2022-07-30T13:05:49.042Z,35.16
2022-07-30T13:08:16.875Z,33.99
2022-07-30T13:11:00.935Z,34.57
2022-07-30T13:13:29.555Z,34.43
2022-07-30T13:16:02.524Z,34.52
2022-07-30T13:18:43.412Z,34.49
2022-07-30T13:21:11.598Z,34.19
2022-07-30T13:23:40.946Z,34.76
2022-07-30T13:26:09.969Z,34.41
2022-07-30T13:28:37.423Z,34.62
2022-07-30T13:31:05.249Z,34.71
2022-07-30T13:33:32.560Z,33.97
2022-07-30T13:36:00.406Z,33.55
2022-07-30T13:38:28.506Z,34.48
2022-07-30T13:40:59.162Z,35.09
2022-07-30T13:43:29.860Z,34.45
2022-07-30T13:46:03.143Z,34.64
2022-07-30T13:48:31.048Z,34.56
2022-07-30T13:51:00.277Z,34.66
2022-07-30T13:53:28.609Z,34.84
2022-07-30T13:55:56.627Z,34.03
2022-07-30T13:58:24.049Z,34.32
2022-07-30T14:00:51.684Z,34.20
2022-07-30T14:03:19.031Z,34.14
2022-07-30T14:05:48.794Z,33.86
2022-07-30T14:08:16.167Z,34.58
2022-07-30T14:10:43.867Z,34.22
2022-07-30T14:13:16.005Z,33.51
2022-07-30T14:15:48.680Z,33.54
2022-07-30T14:18:16.061Z,33.68
2022-07-30T14:20:46.860Z,34.15
2022-07-30T14:23:16.936Z,33.88
2022-07-30T14:25:47.322Z,33.51
2022-07-30T14:28:14.813Z,32.67
2022-07-30T14:30:42.768Z,33.43
2022-07-30T14:33:11.578Z,33.34
2022-07-30T14:35:39.072Z,33.53
2022-07-30T14:38:06.400Z,33.85
2022-07-30T14:40:33.460Z,33.48
2022-07-30T14:43:00.878Z,33.76
2022-07-30T14:45:28.661Z,34.58
2022-07-30T14:47:56.669Z,33.91
2022-07-30T14:50:24.384Z,34.27
2022-07-30T14:52:52.112Z,33.48
2022-07-30T14:55:19.571Z,33.47
2022-07-30T14:57:47.426Z,33.09
2022-07-30T15:00:15.022Z,33.74
2022-07-30T15:02:42.474Z,33.55
2022-07-30T15:05:10.010Z,33.71
2022-07-30T15:07:37.701Z,33.86
2022-07-30T15:10:07.633Z,33.92
2022-07-30T15:12:35.581Z,34.05
2022-07-30T15:15:06.197Z,34.11
2022-07-30T15:17:35.780Z,34.11
2022-07-30T15:20:09.876Z,34.63
2022-07-30T15:22:38.526Z,34.99
2022-07-30T15:25:06.728Z,34.83
2022-07-30T15:27:34.549Z,35.36
2022-07-30T15:30:02.039Z,35.91
2022-07-30T15:32:31.099Z,36.44
2022-07-30T15:34:58.947Z,36.80
2022-07-30T15:37:26.832Z,37.00
2022-07-30T15:39:54.086Z,37.33
2022-07-30T15:42:21.419Z,37.22
2022-07-30T15:44:49.255Z,37.28
2022-07-30T15:47:16.704Z,37.13
2022-07-30T15:49:44.711Z,37.26
2022-07-30T15:52:12.197Z,37.81
2022-07-30T15:54:39.703Z,36.82
2022-07-30T15:57:07.075Z,36.19
2022-07-30T15:59:34.409Z,36.37
2022-07-30T16:02:01.963Z,36.36
2022-07-30T16:04:31.210Z,35.82
2022-07-30T16:07:04.344Z,35.63
2022-07-30T16:09:31.867Z,35.90
2022-07-30T16:11:59.485Z,36.24
2022-07-30T16:14:27.388Z,36.66
2022-07-30T16:16:55.297Z,36.33
2022-07-30T16:19:22.457Z,36.09
2022-07-30T16:21:49.780Z,35.09
2022-07-30T16:24:17.619Z,36.11
2022-07-30T16:26:44.813Z,36.38
2022-07-30T16:29:14.057Z,36.19
2022-07-30T16:31:42.173Z,37.46
2022-07-30T16:34:09.474Z,37.09
2022-07-30T16:36:37.023Z,37.62
2022-07-30T16:39:05.409Z,37.82
2022-07-30T16:41:32.713Z,38.31
2022-07-30T16:44:00.021Z,38.96
2022-07-30T16:46:27.600Z,39.81
2022-07-30T16:48:55.064Z,40.27
2022-07-30T16:51:22.375Z,40.43
2022-07-30T16:53:52.208Z,41.12
2022-07-30T16:56:20.437Z,41.89
2022-07-30T16:58:57.635Z,41.57
2022-07-30T17:01:24.958Z,41.52
2022-07-30T17:04:02.114Z,40.99
2022-07-30T17:06:29.627Z,41.33
2022-07-30T17:08:56.868Z,41.55
2022-07-30T17:11:46.394Z,41.59
2022-07-30T17:14:12.348Z,40.87
2022-07-30T17:16:40.405Z,40.30
2022-07-30T17:19:09.528Z,39.81
2022-07-30T17:21:38.953Z,40.05
2022-07-30T17:24:11.872Z,39.96
2022-07-30T17:26:42.931Z,39.53
2022-07-30T17:29:14.059Z,39.47
2022-07-30T17:31:44.273Z,39.54
2022-07-30T17:34:14.241Z,39.65
2022-07-30T17:36:51.842Z,39.56
2022-07-30T17:40:26.657Z,40.44
2022-07-30T17:42:12.380Z,39.87
2022-07-30T17:44:41.963Z,40.35
2022-07-30T17:47:15.166Z,40.81
2022-07-30T17:49:44.361Z,41.29
2022-07-30T17:52:11.795Z,41.75
2022-07-30T17:54:39.090Z,42.02
2022-07-30T17:57:06.441Z,42.70
2022-07-30T17:59:33.631Z,42.82
2022-07-30T18:02:01.240Z,43.10
2022-07-30T18:04:28.743Z,43.71
2022-07-30T18:06:55.827Z,44.03
2022-07-30T18:09:24.257Z,43.86
2022-07-30T18:11:51.983Z,44.65
2022-07-30T18:14:19.370Z,45.19
2022-07-30T18:16:46.672Z,45.16
2022-07-30T18:19:27.038Z,45.89
2022-07-30T18:21:54.780Z,46.21
2022-07-30T18:24:24.565Z,46.44
2022-07-30T18:26:52.634Z,47.19
2022-07-30T18:29:21.116Z,47.93
2022-07-30T18:31:48.670Z,48.24
2022-07-30T18:34:15.949Z,48.43
2022-07-30T18:36:43.187Z,48.79
2022-07-30T18:39:10.422Z,49.60
2022-07-30T18:41:37.510Z,49.80
2022-07-30T18:44:05.016Z,50.42
2022-07-30T18:46:32.179Z,50.63
2022-07-30T18:49:15.073Z,50.62
2022-07-30T18:51:47.850Z,51.67
2022-07-30T18:54:16.060Z,51.76
2022-07-30T18:56:43.269Z,51.86
2022-07-30T18:59:10.749Z,52.27
2022-07-30T19:01:39.361Z,52.04
2022-07-30T19:04:06.919Z,52.29
2022-07-30T19:06:38.046Z,52.65
2022-07-30T19:09:05.632Z,52.83
2022-07-30T19:11:42.980Z,52.82
2022-07-30T19:14:11.858Z,52.79
2022-07-30T19:16:39.288Z,52.97
2022-07-30T19:19:06.464Z,53.47
2022-07-30T19:21:34.343Z,53.53
2022-07-30T19:24:01.937Z,53.45
2022-07-30T19:26:29.032Z,53.37
2022-07-30T19:28:56.312Z,53.41
2022-07-30T19:31:23.619Z,54.09
2022-07-30T19:33:50.945Z,54.78
2022-07-30T19:36:21.234Z,55.06
2022-07-30T19:38:50.105Z,55.28
2022-07-30T19:41:17.250Z,55.49
2022-07-30T19:43:57.776Z,54.97
2022-07-30T19:46:26.140Z,55.28
2022-07-30T19:48:53.362Z,55.20
2022-07-30T19:51:25.392Z,55.42
2022-07-30T19:54:08.331Z,55.67
2022-07-30T19:56:37.865Z,55.70
2022-07-30T19:59:14.573Z,56.59
2022-07-30T20:01:43.558Z,57.28
2022-07-30T20:04:11.356Z,57.75
2022-07-30T20:06:46.172Z,57.88
2022-07-30T20:09:15.087Z,58.08
2022-07-30T20:11:46.256Z,58.67
2022-07-30T20:17:02.122Z,58.65
2022-07-30T20:19:36.003Z,58.61
2022-07-30T20:22:04.436Z,58.58
2022-07-30T20:24:31.653Z,58.30
2022-07-30T20:27:01.796Z,58.45
2022-07-30T20:29:49.117Z,58.77
2022-07-30T20:32:17.561Z,59.04
2022-07-30T20:34:44.750Z,59.28
2022-07-30T20:37:16.581Z,59.24
2022-07-30T20:39:50.487Z,59.26
2022-07-30T20:42:18.579Z,59.42
2022-07-30T20:44:50.653Z,59.36
2022-07-30T20:47:34.298Z,59.77
2022-07-30T20:50:10.745Z,60.07
2022-07-30T20:52:46.531Z,61.07
2022-07-30T20:55:16.984Z,61.49
2022-07-30T20:57:59.290Z,62.75
2022-07-30T21:00:36.734Z,62.93
2022-07-30T21:03:05.665Z,62.95
2022-07-30T21:05:32.948Z,63.96
2022-07-30T21:08:00.711Z,63.81
2022-07-30T21:10:28.312Z,63.58
2022-07-30T21:12:58.502Z,63.74
2022-07-30T21:15:36.193Z,63.55
2022-07-30T21:18:12.836Z,63.48
2022-07-30T21:20:40.081Z,62.79
2022-07-30T21:23:11.525Z,62.58
2022-07-30T21:26:01.509Z,62.37
2022-07-30T21:28:29.739Z,61.72
2022-07-30T21:31:02.611Z,61.84
2022-07-30T21:33:31.430Z,61.84
2022-07-30T21:35:59.448Z,61.13
2022-07-30T21:38:27.747Z,60.90
2022-07-30T21:40:56.041Z,60.91
2022-07-30T21:43:30.124Z,61.22
2022-07-30T21:45:59.031Z,61.34
2022-07-30T21:48:26.850Z,61.87
2022-07-30T21:50:54.872Z,62.07
2022-07-30T21:53:29.892Z,63.59
2022-07-30T21:56:10.901Z,65.27
2022-07-30T21:58:39.364Z,65.52
2022-07-30T22:01:16.763Z,66.68
2022-07-30T22:04:01.711Z,66.67
2022-07-30T22:06:41.701Z,67.10
2022-07-30T22:09:19.459Z,67.17
2022-07-30T22:11:54.725Z,68.64
2022-07-30T22:14:23.263Z,69.63
2022-07-30T22:16:53.075Z,70.23
2022-07-30T22:19:22.019Z,71.95
2022-07-30T22:21:50.975Z,71.80
2022-07-30T22:24:29.618Z,72.09
2022-07-30T22:27:01.030Z,72.00
2022-07-30T22:29:34.211Z,72.03
2022-07-30T22:32:04.058Z,71.87
2022-07-30T22:34:32.733Z,72.02
2022-07-30T22:37:00.010Z,72.26
2022-07-30T22:39:31.836Z,72.45
2022-07-30T22:42:16.229Z,72.34
2022-07-30T22:47:53.918Z,72.71
2022-07-30T22:50:23.829Z,73.00
2022-07-30T22:53:01.847Z,73.21
2022-07-30T22:55:41.478Z,73.58
2022-07-30T22:58:08.675Z,73.64
2022-07-30T23:00:37.098Z,74.38
2022-07-30T23:03:07.813Z,74.08
2022-07-30T23:05:35.688Z,74.19
2022-07-30T23:08:03.907Z,74.20
2022-07-30T23:10:31.774Z,74.26
2022-07-30T23:12:16.036Z,58.90
2022-07-30T23:12:34.641Z,72.35
2022-07-30T23:12:59.317Z,74.18
2022-07-30T23:15:26.416Z,74.98
2022-07-30T23:17:54.123Z,74.94
2022-07-30T23:20:22.077Z,74.77
2022-07-30T23:22:50.641Z,75.52
2022-07-30T23:25:18.453Z,75.25
2022-07-30T23:27:46.776Z,75.56
2022-07-30T23:30:14.608Z,75.96
2022-07-30T23:32:41.911Z,76.24
2022-07-30T23:35:09.754Z,76.70
2022-07-30T23:37:48.416Z,76.80
2022-07-30T23:40:19.850Z,77.30
2022-07-30T23:42:51.127Z,78.08
2022-07-30T23:45:18.708Z,78.62
2022-07-30T23:48:00.738Z,78.89
2022-07-30T23:50:32.657Z,78.92
2022-07-30T23:53:01.019Z,79.13
2022-07-30T23:55:29.893Z,79.79
2022-07-30T23:57:58.193Z,80.45
